Time;durP1;ratioP1;P1;durP2;ratioP2;P2;SDS_P1;SDS_P2;PMS_P1;PMS_P2;Temp;Humidity;BMP_temperature;BMP_pressure;BME280_temperature;BME280_humidity;BME280_pressure;Samples;Min_cycle;Max_cycle;Signal;HPM_P1;HPM_P2
2023/10/06 00:02:28;;;;;;;4.03;1.92;;;;;;;;;;5110263;28;20104;-79
2023/10/06 00:04:57;;;;;;;5.32;1.73;;;;;;;;;;5110154;28;20055;-81
2023/10/06 00:07:24;;;;;;;3.70;1.92;;;;;;;;;;5109710;28;20051;-73
2023/10/06 00:09:53;;;;;;;4.90;1.70;;;;;;;;;;5109564;28;20125;-77
2023/10/06 00:12:20;;;;;;;4.05;1.70;;;;;;;;;;5109895;28;20046;-80
2023/10/06 00:14:50;;;;;;;4.03;1.65;;;;;;;;;;5109551;28;20055;-81
2023/10/06 00:17:17;;;;;;;4.32;1.73;;;;;;;;;;5109854;28;20047;-81
2023/10/06 00:19:46;;;;;;;4.20;1.38;;;;;;;;;;5109656;28;20050;-78
2023/10/06 00:24:47;;;;;;;4.20;1.55;;;;;;;;;;5108863;28;20051;-80
2023/10/06 00:27:14;;;;;;;3.35;1.50;;;;;;;;;;5109842;28;20050;-81
2023/10/06 00:29:48;;;;;;;3.58;1.50;;;;;;;;;;5109617;28;20053;-80
2023/10/06 00:32:21;;;;;;;3.80;1.60;;;;;;;;;;5109636;28;20054;-79
2023/10/06 00:34:49;;;;;;;4.93;1.60;;;;;;;;;;5109365;28;20059;-81
2023/10/06 00:37:16;;;;;;;4.95;1.73;;;;;;;;;;5109102;28;20047;-81
2023/10/06 00:39:43;;;;;;;3.17;1.48;;;;;;;;;;5109044;28;20256;-80
2023/10/06 00:42:14;;;;;;;3.78;1.77;;;;;;;;;;5109241;28;20100;-81
2023/10/06 00:44:44;;;;;;;2.83;1.55;;;;;;;;;;5109683;28;20127;-81
2023/10/06 00:47:13;;;;;;;3.63;1.50;;;;;;;;;;5109668;28;20050;-81
2023/10/06 00:49:43;;;;;;;4.57;2.00;;;;;;;;;;5109073;28;20491;-80
2023/10/06 00:52:15;;;;;;;4.10;1.80;;;;;;;;;;5109178;28;20134;-82
2023/10/06 00:54:43;;;;;;;3.10;1.45;;;;;;;;;;5108593;28;20814;-79
2023/10/06 00:57:12;;;;;;;3.72;1.60;;;;;;;;;;5109378;28;20100;-81
2023/10/06 00:59:41;;;;;;;2.95;1.42;;;;;;;;;;5109461;28;20047;-81
2023/10/06 01:02:11;;;;;;;2.83;1.52;;;;;;;;;;5109108;28;20116;-78
2023/10/06 01:04:45;;;;;;;4.95;1.60;;;;;;;;;;5109546;28;20054;-79
2023/10/06 01:07:13;;;;;;;3.13;1.50;;;;;;;;;;5109128;28;20057;-80
2023/10/06 01:09:56;;;;;;;3.92;1.52;;;;;;;;;;5108861;28;20122;-81
2023/10/06 01:12:31;;;;;;;6.35;1.83;;;;;;;;;;5108626;28;20054;-81
2023/10/06 01:15:15;;;;;;;3.65;1.70;;;;;;;;;;5108822;28;20095;-81
2023/10/06 01:17:45;;;;;;;3.85;1.50;;;;;;;;;;5090811;28;20044;-81
2023/10/06 01:20:35;;;;;;;5.70;1.48;;;;;;;;;;5108996;28;20123;-81
2023/10/06 01:23:01;;;;;;;2.67;1.35;;;;;;;;;;5108237;28;20044;-80
2023/10/06 01:25:34;;;;;;;5.15;1.73;;;;;;;;;;5108749;28;20127;-81
2023/10/06 01:28:05;;;;;;;5.22;1.70;;;;;;;;;;5109194;28;20047;-82
2023/10/06 01:30:32;;;;;;;4.60;1.88;;;;;;;;;;5108555;28;20415;-80
2023/10/06 01:32:58;;;;;;;2.25;1.33;;;;;;;;;;5108401;28;21054;-82
2023/10/06 01:35:26;;;;;;;2.63;1.40;;;;;;;;;;5109320;28;20048;-82
2023/10/06 01:38:00;;;;;;;6.95;1.58;;;;;;;;;;5112612;28;20073;-81
2023/10/06 01:42:55;;;;;;;3.92;1.42;;;;;;;;;;5113042;28;20130;-82
2023/10/06 01:45:22;;;;;;;6.15;2.13;;;;;;;;;;5094741;28;20043;-82
2023/10/06 01:47:56;;;;;;;4.57;1.60;;;;;;;;;;5112383;28;20720;-81
2023/10/06 01:50:27;;;;;;;4.50;1.60;;;;;;;;;;5112465;28;20380;-78
2023/10/06 01:52:55;;;;;;;5.70;1.70;;;;;;;;;;5112108;28;20154;-80
2023/10/06 01:55:24;;;;;;;3.08;1.60;;;;;;;;;;5112548;28;20052;-79
2023/10/06 01:57:51;;;;;;;3.65;1.50;;;;;;;;;;5112487;28;20047;-79
2023/10/06 02:00:31;;;;;;;3.70;1.70;;;;;;;;;;5112534;28;20122;-76
2023/10/06 02:02:58;;;;;;;4.93;1.50;;;;;;;;;;5112482;28;20051;-78
2023/10/06 02:05:25;;;;;;;2.45;1.30;;;;;;;;;;5112245;28;20455;-78
2023/10/06 02:08:00;;;;;;;2.65;1.40;;;;;;;;;;5111548;28;20039;-76
2023/10/06 02:10:27;;;;;;;2.45;1.15;;;;;;;;;;5112435;28;20047;-80
2023/10/06 02:12:55;;;;;;;3.85;1.70;;;;;;;;;;5112264;28;20055;-77
2023/10/06 02:15:21;;;;;;;3.35;1.58;;;;;;;;;;5112174;28;20139;-80
2023/10/06 02:17:50;;;;;;;3.85;1.55;;;;;;;;;;5112395;28;20043;-80
2023/10/06 02:20:38;;;;;;;2.85;1.40;;;;;;;;;;5112034;28;20050;-79
2023/10/06 02:23:04;;;;;;;3.33;1.50;;;;;;;;;;5111399;28;20039;-81
2023/10/06 02:25:31;;;;;;;3.10;1.55;;;;;;;;;;5111861;28;20083;-76
2023/10/06 02:28:04;;;;;;;3.17;1.35;;;;;;;;;;5111815;28;20070;-80
2023/10/06 02:30:35;;;;;;;3.70;1.40;;;;;;;;;;5111865;28;20047;-80
2023/10/06 02:33:05;;;;;;;4.28;1.48;;;;;;;;;;5111965;28;20047;-79
2023/10/06 02:35:34;;;;;;;5.27;1.60;;;;;;;;;;5111667;28;20051;-80
2023/10/06 02:38:05;;;;;;;3.53;1.60;;;;;;;;;;5111396;28;20048;-80
2023/10/06 02:40:45;;;;;;;3.22;1.50;;;;;;;;;;5111981;28;20050;-81
2023/10/06 02:43:16;;;;;;;3.05;1.42;;;;;;;;;;5111693;28;20044;-76
2023/10/06 02:45:43;;;;;;;2.67;1.40;;;;;;;;;;5093711;28;20069;-80
2023/10/06 02:48:17;;;;;;;4.82;1.30;;;;;;;;;;5111536;28;20039;-79
2023/10/06 02:50:49;;;;;;;3.60;1.40;;;;;;;;;;5111590;28;20044;-79
2023/10/06 02:53:20;;;;;;;2.30;1.38;;;;;;;;;;5110995;28;20055;-79
2023/10/06 02:55:55;;;;;;;4.47;1.65;;;;;;;;;;5111473;28;20499;-78
2023/10/06 02:58:30;;;;;;;3.03;1.40;;;;;;;;;;5110989;28;20664;-79
2023/10/06 03:00:58;;;;;;;5.43;1.70;;;;;;;;;;5111378;28;20039;-81
2023/10/06 03:03:28;;;;;;;5.75;1.80;;;;;;;;;;5110789;28;20430;-81
2023/10/06 03:05:56;;;;;;;4.10;1.48;;;;;;;;;;5111309;28;20051;-79
2023/10/06 03:08:30;;;;;;;2.95;1.40;;;;;;;;;;5110542;28;20051;-80
2023/10/06 03:10:56;;;;;;;2.45;1.50;;;;;;;;;;5110899;28;20447;-79
2023/10/06 03:13:43;;;;;;;4.75;1.70;;;;;;;;;;5110799;28;20556;-79
2023/10/06 03:16:10;;;;;;;4.07;1.60;;;;;;;;;;5110703;28;20059;-81
2023/10/06 03:18:39;;;;;;;6.32;1.63;;;;;;;;;;5110618;28;20083;-76
2023/10/06 03:23:39;;;;;;;3.72;1.60;;;;;;;;;;5110168;28;20556;-80
2023/10/06 03:26:25;;;;;;;2.58;1.48;;;;;;;;;;5092520;28;20135;-80
2023/10/06 03:28:53;;;;;;;3.63;1.55;;;;;;;;;;5110815;28;20120;-79
2023/10/06 03:33:49;;;;;;;3.22;1.90;;;;;;;;;;5110609;28;20083;-80
2023/10/06 03:36:16;;;;;;;3.65;1.48;;;;;;;;;;5110420;28;20055;-82
2023/10/06 03:38:52;;;;;;;5.80;1.88;;;;;;;;;;5110401;28;20108;-81
2023/10/06 03:41:19;;;;;;;2.78;1.50;;;;;;;;;;5110694;28;20095;-81
2023/10/06 03:43:51;;;;;;;8.38;1.60;;;;;;;;;;5110650;28;20044;-81
2023/10/06 03:46:19;;;;;;;3.40;1.60;;;;;;;;;;5110271;28;20044;-80
2023/10/06 03:48:50;;;;;;;5.28;1.73;;;;;;;;;;5110171;28;20484;-82
2023/10/06 03:51:18;;;;;;;3.92;1.70;;;;;;;;;;5110200;28;20537;-81
2023/10/06 03:53:48;;;;;;;4.20;2.05;;;;;;;;;;5109852;28;20047;-80
2023/10/06 03:56:18;;;;;;;3.97;1.70;;;;;;;;;;5109946;28;20670;-79
2023/10/06 03:58:45;;;;;;;4.80;1.70;;;;;;;;;;5109403;28;20039;-80
2023/10/06 04:01:16;;;;;;;5.28;1.65;;;;;;;;;;5110325;28;20044;-80
2023/10/06 04:03:43;;;;;;;5.20;1.40;;;;;;;;;;5110078;28;20054;-81
2023/10/06 04:06:13;;;;;;;3.75;1.80;;;;;;;;;;5110310;28;20044;-80
2023/10/06 04:08:46;;;;;;;5.25;1.48;;;;;;;;;;5109432;28;20052;-81
2023/10/06 04:11:16;;;;;;;3.55;1.48;;;;;;;;;;5110073;28;20144;-79
2023/10/06 04:13:43;;;;;;;3.55;1.52;;;;;;;;;;5109571;28;20051;-79
2023/10/06 04:16:13;;;;;;;2.38;1.10;;;;;;;;;;5091558;28;20059;-78
2023/10/06 04:18:47;;;;;;;5.03;1.60;;;;;;;;;;5109654;28;20484;-72
2023/10/06 04:21:18;;;;;;;3.17;1.50;;;;;;;;;;5091881;28;20101;-69
2023/10/06 04:23:45;;;;;;;3.72;1.30;;;;;;;;;;5109429;28;20096;-73
2023/10/06 04:26:15;;;;;;;7.35;1.20;;;;;;;;;;5109629;28;20044;-75
2023/10/06 04:28:47;;;;;;;4.80;1.15;;;;;;;;;;5109557;28;20126;-77
2023/10/06 04:31:15;;;;;;;3.45;1.50;;;;;;;;;;5109725;28;20410;-77
2023/10/06 04:33:43;;;;;;;4.38;1.40;;;;;;;;;;5109213;28;20499;-77
2023/10/06 04:36:20;;;;;;;2.58;1.30;;;;;;;;;;5109310;28;20047;-79
2023/10/06 04:38:47;;;;;;;3.28;1.50;;;;;;;;;;5108996;28;20105;-80
2023/10/06 04:41:14;;;;;;;4.30;1.23;;;;;;;;;;5109318;28;20680;-73
2023/10/06 04:43:44;;;;;;;2.45;1.25;;;;;;;;;;5109249;28;20048;-81
2023/10/06 04:46:13;;;;;;;3.00;1.27;;;;;;;;;;5109609;28;20043;-80
2023/10/06 04:48:40;;;;;;;3.15;1.33;;;;;;;;;;5108909;28;20044;-81
2023/10/06 04:51:10;;;;;;;4.93;1.30;;;;;;;;;;5109469;28;20044;-79
2023/10/06 04:53:37;;;;;;;5.53;1.27;;;;;;;;;;5090684;28;20051;-81
2023/10/06 04:56:09;;;;;;;4.95;1.40;;;;;;;;;;5109539;28;20096;-81
2023/10/06 04:58:38;;;;;;;2.67;1.35;;;;;;;;;;5090903;28;20044;-80
2023/10/06 05:01:07;;;;;;;4.13;1.40;;;;;;;;;;5109733;28;20043;-76
2023/10/06 05:03:43;;;;;;;2.80;1.20;;;;;;;;;;5108923;28;20047;-78
2023/10/06 05:06:13;;;;;;;2.97;1.27;;;;;;;;;;5109301;28;20522;-79
2023/10/06 05:08:44;;;;;;;2.50;1.17;;;;;;;;;;5108701;28;20044;-79
2023/10/06 05:11:12;;;;;;;;;;;;;;;;;;5111626;28;20053;-80
2023/10/06 05:13:39;;;;;;;3.72;1.30;;;;;;;;;;5113167;28;19920;-79
2023/10/06 05:16:07;;;;;;;2.63;1.48;;;;;;;;;;5113223;28;20095;-81
2023/10/06 05:18:35;;;;;;;4.82;1.42;;;;;;;;;;5113372;28;20132;-79
2023/10/06 05:21:01;;;;;;;4.30;1.35;;;;;;;;;;5113153;28;20078;-79
2023/10/06 05:23:28;;;;;;;3.15;1.60;;;;;;;;;;5112818;28;20116;-78
2023/10/06 05:26:02;;;;;;;5.60;1.73;;;;;;;;;;5113198;28;20085;-73
2023/10/06 05:28:30;;;;;;;3.33;1.42;;;;;;;;;;5113194;28;20055;-76
2023/10/06 05:30:57;;;;;;;2.38;1.30;;;;;;;;;;5113304;28;20043;-77
2023/10/06 05:33:27;;;;;;;3.67;1.58;;;;;;;;;;5112638;28;20059;-72
2023/10/06 05:35:53;;;;;;;6.53;1.50;;;;;;;;;;5113213;28;20047;-76
2023/10/06 05:38:20;;;;;;;3.33;1.45;;;;;;;;;;5112408;28;20048;-81
2023/10/06 05:40:50;;;;;;;3.67;1.50;;;;;;;;;;5112986;28;20122;-80
2023/10/06 05:43:17;;;;;;;4.22;1.63;;;;;;;;;;5112606;28;20044;-79
2023/10/06 05:45:45;;;;;;;6.13;1.30;;;;;;;;;;5113093;28;20052;-78
2023/10/06 05:48:12;;;;;;;5.03;1.30;;;;;;;;;;5112739;28;20039;-74
2023/10/06 05:50:43;;;;;;;2.78;1.65;;;;;;;;;;5112673;28;20086;-79
2023/10/06 05:53:19;;;;;;;3.55;1.67;;;;;;;;;;5112544;28;20050;-79
2023/10/06 05:55:49;;;;;;;5.93;1.67;;;;;;;;;;5112660;28;20096;-79
2023/10/06 05:58:19;;;;;;;8.30;1.67;;;;;;;;;;5112823;28;20044;-77
2023/10/06 06:00:55;;;;;;;8.32;1.80;;;;;;;;;;5094327;28;20063;-71
2023/10/06 06:03:23;;;;;;;5.97;1.48;;;;;;;;;;5094562;28;20048;-77
2023/10/06 06:05:57;;;;;;;3.95;1.40;;;;;;;;;;5112903;28;20052;-79
2023/10/06 06:08:24;;;;;;;5.18;1.63;;;;;;;;;;5112387;28;20140;-80
2023/10/06 06:10:50;;;;;;;4.72;1.45;;;;;;;;;;5112399;28;20387;-79
2023/10/06 06:13:17;;;;;;;5.70;1.52;;;;;;;;;;5112290;28;20049;-79
2023/10/06 06:15:51;;;;;;;;;;;;;;;;;;5112270;28;20055;-77
2023/10/06 06:18:17;;;;;;;3.15;1.52;;;;;;;;;;5112068;28;19924;-80
2023/10/06 06:20:45;;;;;;;4.72;1.70;;;;;;;;;;5112346;28;20050;-78
2023/10/06 06:23:13;;;;;;;5.95;1.90;;;;;;;;;;5111091;28;20558;-78
2023/10/06 06:25:42;;;;;;;5.60;1.52;;;;;;;;;;5112297;28;20074;-80
2023/10/06 06:28:12;;;;;;;5.80;1.77;;;;;;;;;;5112222;28;20118;-78
2023/10/06 06:30:40;;;;;;;3.67;1.58;;;;;;;;;;5111650;28;20092;-77
2023/10/06 06:33:08;;;;;;;6.38;1.75;;;;;;;;;;5111840;28;20387;-80
2023/10/06 06:35:36;;;;;;;4.63;1.40;;;;;;;;;;5111563;28;20050;-80
2023/10/06 06:38:06;;;;;;;8.05;2.00;;;;;;;;;;5111504;28;20070;-77
2023/10/06 06:40:37;;;;;;;4.13;1.33;;;;;;;;;;5111526;28;20050;-75
2023/10/06 06:43:09;;;;;;;5.22;1.42;;;;;;;;;;5111571;28;20046;-81
2023/10/06 06:45:39;;;;;;;6.63;1.40;;;;;;;;;;5111317;28;20613;-81
2023/10/06 06:48:12;;;;;;;3.13;1.58;;;;;;;;;;5111963;28;20043;-83
2023/10/06 06:50:43;;;;;;;8.88;1.70;;;;;;;;;;5093209;28;20511;-75
2023/10/06 06:53:11;;;;;;;4.68;1.83;;;;;;;;;;5111143;28;20044;-81
2023/10/06 06:55:39;;;;;;;4.25;1.83;;;;;;;;;;5111446;28;20047;-81
2023/10/06 06:58:16;;;;;;;3.95;1.38;;;;;;;;;;5111533;28;20043;-78
2023/10/06 07:00:43;;;;;;;5.63;1.83;;;;;;;;;;5111676;28;20043;-81
2023/10/06 07:03:10;;;;;;;7.80;1.50;;;;;;;;;;5111586;28;20043;-80
2023/10/06 07:05:39;;;;;;;3.28;1.42;;;;;;;;;;5110837;28;20062;-80
2023/10/06 07:08:07;;;;;;;5.20;1.40;;;;;;;;;;5110867;28;20051;-81
2023/10/06 07:10:38;;;;;;;5.00;1.50;;;;;;;;;;5110910;28;20050;-80
2023/10/06 07:13:06;;;;;;;5.72;1.60;;;;;;;;;;5110968;28;20044;-81
2023/10/06 07:15:33;;;;;;;7.47;1.70;;;;;;;;;;5110743;28;20047;-81
2023/10/06 07:18:00;;;;;;;5.72;1.75;;;;;;;;;;5110934;28;20051;-78
2023/10/06 07:20:30;;;;;;;3.50;1.50;;;;;;;;;;5110637;28;20529;-81
2023/10/06 07:23:00;;;;;;;5.53;1.45;;;;;;;;;;5110780;28;20053;-81
2023/10/06 07:25:28;;;;;;;4.15;1.40;;;;;;;;;;5110349;28;20044;-81
2023/10/06 07:27:59;;;;;;;3.38;1.50;;;;;;;;;;5110606;28;20086;-82
2023/10/06 07:30:26;;;;;;;;;;;;;;;;;;5111406;28;20048;-81
2023/10/06 07:32:56;;;;;;;3.58;1.45;;;;;;;;;;5110260;28;19923;-79
2023/10/06 07:35:37;;;;;;;3.60;1.70;;;;;;;;;;5109980;28;20565;-82
2023/10/06 07:38:04;;;;;;;3.13;1.58;;;;;;;;;;5110290;28;20407;-82
2023/10/06 07:40:31;;;;;;;5.03;1.90;;;;;;;;;;5110788;28;20043;-81
2023/10/06 07:42:58;;;;;;;4.53;1.65;;;;;;;;;;5110703;28;20043;-82
2023/10/06 07:45:30;;;;;;;5.35;1.38;;;;;;;;;;5110023;28;20048;-82
2023/10/06 07:47:57;;;;;;;4.72;1.70;;;;;;;;;;5110254;28;20402;-80
2023/10/06 07:50:28;;;;;;;7.68;1.90;;;;;;;;;;5110186;28;20051;-81
2023/10/06 07:52:56;;;;;;;4.00;1.92;;;;;;;;;;5110225;28;20043;-81
2023/10/06 07:55:23;;;;;;;7.03;2.30;;;;;;;;;;5110220;28;20043;-81
2023/10/06 07:57:51;;;;;;;4.38;1.95;;;;;;;;;;5110400;28;20089;-81
2023/10/06 08:00:29;;;;;;;6.28;2.10;;;;;;;;;;5091819;28;20570;-82
2023/10/06 08:03:00;;;;;;;6.47;2.20;;;;;;;;;;5110336;28;20070;-82
2023/10/06 08:05:28;;;;;;;3.92;1.85;;;;;;;;;;5109835;28;20101;-82
2023/10/06 08:07:59;;;;;;;5.82;2.05;;;;;;;;;;5109992;28;20048;-82
2023/10/06 08:10:30;;;;;;;4.70;2.28;;;;;;;;;;5109551;28;20541;-82
2023/10/06 08:13:00;;;;;;;6.20;2.60;;;;;;;;;;5110065;28;20193;-81
2023/10/06 08:15:31;;;;;;;6.88;2.13;;;;;;;;;;5109639;28;20814;-80
2023/10/06 08:17:59;;;;;;;5.03;2.47;;;;;;;;;;5109888;28;20055;-82
2023/10/06 08:20:27;;;;;;;6.88;2.47;;;;;;;;;;5109348;28;20066;-81
2023/10/06 08:22:56;;;;;;;5.28;2.30;;;;;;;;;;5109151;28;20392;-79
2023/10/06 08:25:24;;;;;;;9.10;2.50;;;;;;;;;;5109777;28;20047;-80
2023/10/06 08:27:52;;;;;;;5.47;2.72;;;;;;;;;;5109926;28;20047;-78
2023/10/06 08:30:19;;;;;;;6.03;2.60;;;;;;;;;;5109423;28;20051;-81
2023/10/06 08:32:53;;;;;;;6.13;2.10;;;;;;;;;;5109398;28;20047;-80
2023/10/06 08:35:21;;;;;;;5.50;2.05;;;;;;;;;;5109604;28;20047;-82
2023/10/06 08:37:51;;;;;;;7.53;2.50;;;;;;;;;;5109019;28;20051;-76
2023/10/06 08:40:22;;;;;;;9.10;2.63;;;;;;;;;;5109528;28;20044;-81
2023/10/06 08:42:52;;;;;;;6.55;2.38;;;;;;;;;;5109369;28;20039;-81
2023/10/06 08:45:22;;;;;;;6.40;2.08;;;;;;;;;;5109541;28;20040;-81
2023/10/06 08:47:50;;;;;;;6.22;2.33;;;;;;;;;;5109747;28;20126;-80
2023/10/06 08:50:31;;;;;;;11.13;2.55;;;;;;;;;;5109267;28;20485;-80
2023/10/06 08:53:00;;;;;;;4.38;2.25;;;;;;;;;;5109216;28;20051;-81
2023/10/06 08:55:28;;;;;;;5.32;2.10;;;;;;;;;;5109272;28;20043;-77
2023/10/06 08:57:58;;;;;;;6.75;2.20;;;;;;;;;;5109073;28;20619;-69
2023/10/06 09:00:31;;;;;;;3.88;2.15;;;;;;;;;;5109462;28;20039;-80
2023/10/06 09:03:07;;;;;;;6.85;2.40;;;;;;;;;;5109318;28;20044;-82
2023/10/06 09:05:39;;;;;;;7.80;2.38;;;;;;;;;;5109215;28;20040;-79
2023/10/06 09:08:07;;;;;;;;;;;;;;;;;;5109432;28;20146;-77
2023/10/06 09:10:36;;;;;;;8.80;2.60;;;;;;;;;;5109219;28;19958;-82
2023/10/06 09:13:08;;;;;;;9.40;2.40;;;;;;;;;;5108921;28;20054;-78
2023/10/06 09:15:35;;;;;;;8.18;2.63;;;;;;;;;;5108776;28;20058;-80
2023/10/06 09:18:34;;;;;;;9.80;2.72;;;;;;;;;;5108948;28;20061;-82
2023/10/06 09:21:13;;;;;;;5.35;2.30;;;;;;;;;;5074835;28;20044;-80
2023/10/06 09:23:40;;;;;;;5.80;2.20;;;;;;;;;;5108717;28;20087;-82
2023/10/06 09:26:09;;;;;;;5.10;2.55;;;;;;;;;;5090930;28;20496;-81
2023/10/06 09:28:51;;;;;;;6.20;2.50;;;;;;;;;;5109239;28;20063;-81
2023/10/06 09:31:44;;;;;;;13.65;3.20;;;;;;;;;;5108459;28;20628;-81
2023/10/06 09:34:11;;;;;;;7.32;2.42;;;;;;;;;;5108822;28;20130;-82
2023/10/06 09:36:42;;;;;;;10.45;2.65;;;;;;;;;;5108561;28;20087;-82
2023/10/06 09:39:15;;;;;;;10.65;2.92;;;;;;;;;;5108416;28;20052;-75
2023/10/06 09:41:47;;;;;;;7.72;2.53;;;;;;;;;;5108936;28;20040;-76
2023/10/06 09:44:17;;;;;;;;;;;;;;;;;;5109210;28;20040;-82
2023/10/06 09:46:50;;;;;;;6.10;2.28;;;;;;;;;;5108449;28;19919;-81
2023/10/06 09:49:18;;;;;;;8.40;2.50;;;;;;;;;;5108820;28;20044;-77
2023/10/06 09:51:45;;;;;;;6.90;2.75;;;;;;;;;;5108273;28;20044;-82
2023/10/06 09:54:14;;;;;;;8.48;2.65;;;;;;;;;;5108032;28;20043;-79
2023/10/06 09:56:41;;;;;;;6.15;2.38;;;;;;;;;;5109420;28;20097;-78
2023/10/06 09:59:12;;;;;;;10.38;2.75;;;;;;;;;;5112815;28;20044;-81
2023/10/06 10:01:42;;;;;;;9.10;2.70;;;;;;;;;;5112377;28;20043;-82
2023/10/06 10:04:12;;;;;;;8.30;2.45;;;;;;;;;;5112854;28;20047;-82
2023/10/06 10:06:43;;;;;;;9.02;2.25;;;;;;;;;;5112031;28;20571;-77
2023/10/06 10:09:17;;;;;;;8.30;2.63;;;;;;;;;;5111732;28;20051;-74
2023/10/06 10:11:54;;;;;;;6.47;2.30;;;;;;;;;;5112256;28;20063;-83
2023/10/06 10:14:36;;;;;;;6.20;2.50;;;;;;;;;;5112288;28;20043;-79
2023/10/06 10:17:13;;;;;;;7.35;2.10;;;;;;;;;;5112199;28;20089;-81
2023/10/06 10:19:43;;;;;;;8.88;2.20;;;;;;;;;;5112178;28;20071;-82
2023/10/06 10:22:16;;;;;;;9.85;2.33;;;;;;;;;;5111849;28;20475;-81
2023/10/06 10:24:45;;;;;;;4.63;1.70;;;;;;;;;;5111662;28;20079;-80
2023/10/06 10:27:22;;;;;;;4.65;2.20;;;;;;;;;;5111579;28;20044;-82
2023/10/06 10:29:49;;;;;;;6.28;2.10;;;;;;;;;;5111547;28;20040;-82
2023/10/06 10:32:18;;;;;;;7.95;2.10;;;;;;;;;;5111768;28;20053;-82
2023/10/06 10:35:10;;;;;;;5.63;1.98;;;;;;;;;;5112251;28;20127;-81
2023/10/06 10:38:02;;;;;;;5.90;1.85;;;;;;;;;;5111464;28;20058;-79
2023/10/06 10:40:46;;;;;;;6.40;1.90;;;;;;;;;;5111321;28;20584;-78
2023/10/06 10:43:14;;;;;;;7.00;1.55;;;;;;;;;;5111212;28;20589;-82
2023/10/06 10:45:44;;;;;;;3.83;1.75;;;;;;;;;;5111899;28;20051;-81
2023/10/06 10:48:17;;;;;;;4.07;1.67;;;;;;;;;;5111618;28;20105;-79
2023/10/06 10:50:52;;;;;;;2.13;1.35;;;;;;;;;;5111536;28;20134;-78
2023/10/06 10:53:22;;;;;;;3.45;1.40;;;;;;;;;;5111257;28;20049;-81
2023/10/06 10:55:50;;;;;;;5.05;1.17;;;;;;;;;;5111429;28;20088;-80
2023/10/06 10:58:42;;;;;;;5.00;1.80;;;;;;;;;;5111079;28;20047;-78
2023/10/06 11:01:38;;;;;;;3.90;1.50;;;;;;;;;;5111523;28;20219;-82
2023/10/06 11:04:35;;;;;;;3.03;1.40;;;;;;;;;;5111426;28;20047;-80
2023/10/06 11:07:10;;;;;;;3.67;1.27;;;;;;;;;;5110955;28;20054;-82
2023/10/06 11:09:47;;;;;;;3.15;1.27;;;;;;;;;;5109809;28;20051;-82
2023/10/06 11:12:16;;;;;;;2.97;1.55;;;;;;;;;;5110920;28;20043;-82
2023/10/06 11:14:49;;;;;;;4.25;1.52;;;;;;;;;;5111135;28;20060;-81
2023/10/06 11:17:24;;;;;;;2.95;1.30;;;;;;;;;;5110784;28;20047;-82
2023/10/06 11:20:00;;;;;;;3.33;1.42;;;;;;;;;;5110717;28;20043;-81
2023/10/06 11:22:32;;;;;;;3.88;1.48;;;;;;;;;;5110622;28;20081;-76
2023/10/06 11:25:03;;;;;;;4.32;1.58;;;;;;;;;;5110668;28;20151;-82
2023/10/06 11:27:30;;;;;;;4.28;1.40;;;;;;;;;;5110737;28;20136;-82
2023/10/06 11:29:57;;;;;;;2.22;1.45;;;;;;;;;;5110922;28;20150;-81
2023/10/06 11:32:26;;;;;;;5.22;1.58;;;;;;;;;;5110624;28;20126;-79
2023/10/06 11:34:53;;;;;;;2.85;1.50;;;;;;;;;;5110468;28;20048;-78
2023/10/06 11:37:24;;;;;;;2.95;1.42;;;;;;;;;;5110557;28;20136;-81
2023/10/06 11:39:53;;;;;;;3.28;1.52;;;;;;;;;;5109943;28;20452;-81
2023/10/06 11:42:26;;;;;;;2.85;1.40;;;;;;;;;;5110687;28;20048;-80
2023/10/06 11:44:53;;;;;;;2.75;1.60;;;;;;;;;;5110229;28;20609;-81
2023/10/06 11:47:26;;;;;;;3.08;1.60;;;;;;;;;;5110377;28;20040;-82
2023/10/06 11:49:53;;;;;;;4.57;1.60;;;;;;;;;;5110114;28;20048;-81
2023/10/06 11:52:20;;;;;;;3.05;1.50;;;;;;;;;;5110865;28;20131;-80
2023/10/06 11:54:47;;;;;;;2.97;1.45;;;;;;;;;;5109788;28;20051;-79
2023/10/06 11:57:14;;;;;;;4.70;1.58;;;;;;;;;;5110318;28;20058;-81
2023/10/06 11:59:51;;;;;;;3.33;1.40;;;;;;;;;;5110018;28;20100;-80
2023/10/06 12:02:19;;;;;;;3.03;1.75;;;;;;;;;;5110095;28;20054;-82
2023/10/06 12:04:46;;;;;;;2.78;1.60;;;;;;;;;;5110238;28;20051;-81
2023/10/06 12:07:23;;;;;;;3.08;1.40;;;;;;;;;;5110135;28;20052;-81
2023/10/06 12:09:50;;;;;;;2.47;1.25;;;;;;;;;;5091692;28;20344;-72
2023/10/06 12:12:17;;;;;;;5.15;1.55;;;;;;;;;;5109919;28;20053;-75
2023/10/06 12:14:45;;;;;;;4.53;1.50;;;;;;;;;;5109866;28;20071;-82
2023/10/06 12:17:13;;;;;;;2.45;1.30;;;;;;;;;;5109893;28;20790;-81
2023/10/06 12:19:42;;;;;;;6.57;1.65;;;;;;;;;;5109575;28;20140;-81
2023/10/06 12:22:09;;;;;;;3.90;1.75;;;;;;;;;;5110133;28;20071;-82
2023/10/06 12:24:40;;;;;;;3.22;1.50;;;;;;;;;;5109126;28;20059;-79
2023/10/06 12:27:09;;;;;;;3.83;1.65;;;;;;;;;;5109878;28;20051;-80
2023/10/06 12:29:36;;;;;;;3.37;1.60;;;;;;;;;;5109436;28;20101;-82
2023/10/06 12:32:02;;;;;;;2.72;1.40;;;;;;;;;;5109555;28;20540;-80
2023/10/06 12:34:31;;;;;;;4.53;1.77;;;;;;;;;;5109339;28;20073;-81
2023/10/06 12:37:02;;;;;;;6.07;1.85;;;;;;;;;;5109336;28;20040;-81
2023/10/06 12:39:34;;;;;;;4.03;1.63;;;;;;;;;;5108879;28;20047;-79
2023/10/06 12:42:03;;;;;;;4.55;1.58;;;;;;;;;;5109720;28;20100;-81
2023/10/06 12:44:31;;;;;;;3.35;1.60;;;;;;;;;;5109423;28;20051;-80
2023/10/06 12:47:03;;;;;;;2.95;1.48;;;;;;;;;;5109557;28;20249;-80
2023/10/06 12:49:31;;;;;;;7.05;1.63;;;;;;;;;;5108975;28;20113;-79
2023/10/06 12:51:58;;;;;;;4.03;1.60;;;;;;;;;;5109581;28;20086;-81
2023/10/06 12:54:25;;;;;;;3.15;1.50;;;;;;;;;;5108852;28;20047;-79
2023/10/06 12:56:52;;;;;;;3.83;1.80;;;;;;;;;;5108969;28;20498;-81
2023/10/06 12:59:19;;;;;;;3.65;1.95;;;;;;;;;;5108967;28;20402;-79
2023/10/06 13:01:49;;;;;;;5.07;1.60;;;;;;;;;;5109285;28;20511;-79
2023/10/06 13:04:15;;;;;;;4.63;1.60;;;;;;;;;;5108943;28;20047;-81
2023/10/06 13:06:42;;;;;;;3.25;1.63;;;;;;;;;;5108823;28;20550;-80
2023/10/06 13:09:17;;;;;;;2.90;1.45;;;;;;;;;;5108670;28;20070;-81
2023/10/06 13:11:43;;;;;;;3.70;2.00;;;;;;;;;;5109143;28;20044;-81
2023/10/06 13:14:11;;;;;;;2.85;1.50;;;;;;;;;;5108975;28;20048;-81
2023/10/06 13:16:38;;;;;;;3.22;1.60;;;;;;;;;;5108643;28;20063;-81
2023/10/06 13:19:05;;;;;;;3.40;1.60;;;;;;;;;;5091113;28;20044;-79
2023/10/06 13:21:32;;;;;;;2.67;1.67;;;;;;;;;;5109122;28;20044;-81
2023/10/06 13:23:58;;;;;;;3.88;1.70;;;;;;;;;;5108176;28;20435;-79
2023/10/06 13:26:32;;;;;;;4.50;1.70;;;;;;;;;;5108924;28;20047;-81
2023/10/06 13:29:09;;;;;;;3.53;1.75;;;;;;;;;;5108724;28;20276;-78
2023/10/06 13:31:37;;;;;;;2.55;1.60;;;;;;;;;;5109863;28;20389;-79
2023/10/06 13:34:04;;;;;;;4.38;1.83;;;;;;;;;;5112791;28;20047;-79
2023/10/06 13:36:31;;;;;;;5.03;1.80;;;;;;;;;;5113122;28;20043;-78
2023/10/06 13:38:57;;;;;;;5.32;1.95;;;;;;;;;;5112245;28;20083;-72
2023/10/06 13:41:24;;;;;;;3.53;1.60;;;;;;;;;;5112988;28;20044;-76
2023/10/06 13:43:51;;;;;;;6.95;2.30;;;;;;;;;;5112352;28;20048;-80
2023/10/06 13:46:18;;;;;;;3.72;1.60;;;;;;;;;;5112585;28;20039;-78
2023/10/06 13:48:45;;;;;;;4.15;2.20;;;;;;;;;;5113012;28;20043;-81
2023/10/06 13:51:11;;;;;;;3.70;2.10;;;;;;;;;;5112889;28;20051;-79
2023/10/06 13:53:41;;;;;;;4.05;2.00;;;;;;;;;;5112339;28;20109;-76
2023/10/06 13:56:08;;;;;;;4.38;2.10;;;;;;;;;;5112170;28;20474;-82
2023/10/06 13:58:35;;;;;;;4.15;2.03;;;;;;;;;;5112627;28;20051;-77
2023/10/06 14:01:01;;;;;;;3.67;1.70;;;;;;;;;;5112337;28;20411;-81
2023/10/06 14:03:29;;;;;;;6.10;2.50;;;;;;;;;;5112730;28;20074;-80
2023/10/06 14:05:57;;;;;;;3.92;2.05;;;;;;;;;;5112017;28;20079;-81
2023/10/06 14:08:28;;;;;;;4.45;1.98;;;;;;;;;;5112104;28;20518;-81
2023/10/06 14:10:56;;;;;;;3.97;1.98;;;;;;;;;;5112128;28;20043;-80
2023/10/06 14:13:24;;;;;;;4.75;1.95;;;;;;;;;;5094174;28;20434;-82
2023/10/06 14:15:55;;;;;;;5.03;2.13;;;;;;;;;;5111552;28;20135;-82
2023/10/06 14:18:25;;;;;;;4.63;2.60;;;;;;;;;;5112338;28;20059;-82
2023/10/06 14:21:02;;;;;;;5.32;2.05;;;;;;;;;;5112163;28;20132;-81
2023/10/06 14:23:32;;;;;;;4.60;2.22;;;;;;;;;;5111693;28;20479;-76
2023/10/06 14:26:00;;;;;;;;;;;;;;;;;;5112227;28;20536;-81
2023/10/06 14:28:28;;;;;;;4.05;2.13;;;;;;;;;;5112089;28;19926;-82
2023/10/06 14:31:05;;;;;;;3.95;2.10;;;;;;;;;;5111987;28;20047;-82
2023/10/06 14:33:44;;;;;;;3.20;1.90;;;;;;;;;;5111641;28;20198;-79
2023/10/06 14:46:36;;;;;;;4.28;1.85;;;;;;;;;;5111756;28;20047;-82
2023/10/06 14:49:06;;;;;;;3.47;1.93;;;;;;;;;;5111646;28;20051;-81
2023/10/06 14:51:35;;;;;;;4.97;2.00;;;;;;;;;;5111298;28;20044;-79
2023/10/06 14:54:03;;;;;;;;;;;;;;;;;;5111787;28;20044;-79
2023/10/06 14:56:31;;;;;;;4.53;1.92;;;;;;;;;;5111220;28;20039;-81
2023/10/06 14:58:58;;;;;;;3.33;1.80;;;;;;;;;;5111494;28;20047;-82
2023/10/06 15:01:25;;;;;;;5.07;2.10;;;;;;;;;;5111172;28;20039;-81
2023/10/06 15:03:52;;;;;;;4.07;1.85;;;;;;;;;;5111130;28;20403;-81
2023/10/06 15:06:20;;;;;;;5.18;2.00;;;;;;;;;;5111053;28;20050;-82
2023/10/06 15:08:48;;;;;;;3.65;1.73;;;;;;;;;;5110959;28;20047;-76
2023/10/06 15:11:16;;;;;;;4.93;1.88;;;;;;;;;;5110695;28;20534;-82
2023/10/06 15:13:46;;;;;;;4.22;1.85;;;;;;;;;;5111390;28;20047;-81
2023/10/06 15:16:18;;;;;;;3.20;1.90;;;;;;;;;;5093010;28;20044;-79
2023/10/06 15:18:47;;;;;;;3.33;1.75;;;;;;;;;;5111022;28;20500;-80
2023/10/06 15:21:15;;;;;;;4.38;1.90;;;;;;;;;;5110499;28;20127;-80
2023/10/06 15:23:47;;;;;;;3.28;1.77;;;;;;;;;;5110763;28;20092;-79
2023/10/06 15:26:21;;;;;;;3.42;1.90;;;;;;;;;;5110745;28;20047;-80